createdAt,value
2023-02-11T00:01:25.160Z,11.80
2023-02-11T00:04:06.143Z,10.45
2023-02-11T00:06:47.290Z,10.63
2023-02-11T00:09:27.136Z,7.13
2023-02-11T00:12:15.156Z,7.88
2023-02-11T00:14:49.198Z,11.68
2023-02-11T00:17:37.142Z,9.57
2023-02-11T00:20:11.298Z,12.77
2023-02-11T00:22:59.148Z,13.63
2023-02-11T00:25:33.288Z,11.63
2023-02-11T00:28:21.181Z,9.90
2023-02-11T00:31:05.317Z,14.25
2023-02-11T00:33:53.178Z,13.25
2023-02-11T00:36:28.741Z,11.27
2023-02-11T00:39:16.151Z,12.63
2023-02-11T00:41:50.118Z,11.38
2023-02-11T00:44:38.156Z,12.63
2023-02-11T00:47:18.182Z,12.68
2023-02-11T00:50:07.175Z,10.07
2023-02-11T00:52:47.157Z,10.90
2023-02-11T00:55:35.144Z,10.52
2023-02-11T00:58:15.198Z,12.15
2023-02-11T01:00:56.312Z,12.85
2023-02-11T01:03:37.201Z,15.13
2023-02-11T01:06:18.259Z,14.02
2023-02-11T01:08:58.163Z,17.48
2023-02-11T01:11:39.266Z,10.32
2023-02-11T01:14:20.196Z,15.48
2023-02-11T01:17:01.230Z,11.95
2023-02-11T01:19:42.209Z,12.90
2023-02-11T01:22:23.217Z,11.13
2023-02-11T01:25:03.194Z,11.25
2023-02-11T01:27:51.148Z,15.20
2023-02-11T01:30:25.146Z,13.27
2023-02-11T01:33:13.202Z,12.48
2023-02-11T01:35:47.167Z,9.73
2023-02-11T01:38:39.189Z,14.10
2023-02-11T01:41:20.134Z,14.25
2023-02-11T01:44:08.169Z,11.23
2023-02-11T01:46:42.193Z,11.32
2023-02-11T01:49:32.271Z,10.73
2023-02-11T01:52:28.155Z,14.98
2023-02-11T01:55:39.151Z,11.43
2023-02-11T01:58:19.192Z,12.75
2023-02-11T02:01:07.148Z,13.05
2023-02-11T02:03:43.348Z,13.23
2023-02-11T02:06:33.153Z,17.35
2023-02-11T02:09:16.276Z,13.15
2023-02-11T02:11:58.191Z,12.43
2023-02-11T02:14:39.147Z,12.73
2023-02-11T02:17:14.220Z,15.10
2023-02-11T02:20:21.178Z,17.42
2023-02-11T02:23:10.248Z,10.82
2023-02-11T02:25:57.179Z,14.52
2023-02-11T02:29:07.174Z,13.90
2023-02-11T02:32:13.148Z,14.27
2023-02-11T02:35:07.488Z,16.13
2023-02-11T02:38:15.170Z,10.75
2023-02-11T02:40:52.261Z,10.05
2023-02-11T02:46:25.212Z,15.15
2023-02-11T02:49:00.278Z,16.27
2023-02-11T02:51:54.161Z,19.42
2023-02-11T02:54:37.309Z,17.05
2023-02-11T02:57:49.207Z,17.10
2023-02-11T03:00:30.414Z,11.88
2023-02-11T03:03:16.200Z,13.45
2023-02-11T03:06:35.198Z,15.38
2023-02-11T03:09:45.984Z,12.63
2023-02-11T03:12:34.157Z,15.00
2023-02-11T03:15:15.184Z,15.98
2023-02-11T03:18:04.153Z,15.50
2023-02-11T03:20:40.096Z,16.48
2023-02-11T03:23:40.194Z,9.93
2023-02-11T03:26:26.168Z,12.45
2023-02-11T03:29:34.270Z,14.20
2023-02-11T03:32:22.179Z,11.35
2023-02-11T03:35:25.161Z,12.85
2023-02-11T03:38:02.875Z,14.40
2023-02-11T03:43:32.154Z,12.02
2023-02-11T03:46:13.292Z,13.48
2023-02-11T03:48:59.185Z,18.27
2023-02-11T03:51:40.311Z,11.82
2023-02-11T03:54:22.193Z,14.52
2023-02-11T03:57:12.186Z,12.18
2023-02-11T04:00:02.169Z,11.95
2023-02-11T04:02:45.243Z,12.10
2023-02-11T04:05:32.158Z,14.00
2023-02-11T04:08:06.273Z,17.45
2023-02-11T04:10:53.183Z,15.77
2023-02-11T04:13:34.173Z,14.65
2023-02-11T04:16:28.209Z,11.15
2023-02-11T04:19:15.176Z,9.80
2023-02-11T04:21:49.241Z,17.48
2023-02-11T04:24:36.196Z,12.95
2023-02-11T04:27:10.233Z,17.80
2023-02-11T04:29:58.157Z,13.05
2023-02-11T04:32:32.318Z,13.02
2023-02-11T04:35:20.153Z,15.50
2023-02-11T04:37:54.315Z,14.07
2023-02-11T04:40:41.321Z,15.35
2023-02-11T04:43:29.178Z,14.02
2023-02-11T04:46:03.168Z,14.75
2023-02-11T04:48:51.249Z,15.73
2023-02-11T04:51:25.137Z,16.15
2023-02-11T04:54:13.222Z,13.40
2023-02-11T04:56:47.183Z,15.63
2023-02-11T04:59:35.202Z,14.00
2023-02-11T05:02:15.166Z,12.32
2023-02-11T05:05:03.166Z,14.80
2023-02-11T05:07:37.164Z,12.02
2023-02-11T05:10:25.194Z,10.13
2023-02-11T05:13:05.216Z,12.68
2023-02-11T05:15:53.394Z,10.63
2023-02-11T05:18:27.157Z,6.97
2023-02-11T05:21:19.177Z,12.90
2023-02-11T05:23:53.169Z,12.93
2023-02-11T05:26:41.206Z,13.68
2023-02-11T05:29:22.202Z,11.68
2023-02-11T05:32:03.314Z,11.80
2023-02-11T05:34:50.213Z,13.80
2023-02-11T05:37:24.367Z,13.73
2023-02-11T05:40:12.165Z,11.68
2023-02-11T05:42:46.271Z,14.65
2023-02-11T05:45:34.222Z,14.23
2023-02-11T05:48:08.287Z,13.35
2023-02-11T05:50:55.205Z,14.35
2023-02-11T05:53:29.288Z,12.85
2023-02-11T05:56:17.172Z,13.02
2023-02-11T05:58:58.239Z,12.73
2023-02-11T06:01:38.198Z,10.48
2023-02-11T06:04:26.211Z,13.68
2023-02-11T06:07:06.192Z,9.77
2023-02-11T06:09:47.436Z,10.82
2023-02-11T06:12:27.226Z,8.77
2023-02-11T06:15:08.257Z,9.35
2023-02-11T06:17:48.207Z,10.98
2023-02-11T06:20:36.174Z,10.05
2023-02-11T06:23:10.208Z,12.52
2023-02-11T06:25:58.160Z,11.05
2023-02-11T06:28:42.049Z,11.73
2023-02-11T06:31:30.283Z,11.18
2023-02-11T06:34:11.185Z,11.02
2023-02-11T06:36:52.266Z,9.45
2023-02-11T06:39:32.206Z,12.38
2023-02-11T06:42:20.219Z,7.88
2023-02-11T06:44:54.141Z,9.00
2023-02-11T06:47:42.178Z,8.82
2023-02-11T06:50:23.186Z,7.10
2023-02-11T06:53:06.264Z,8.68
2023-02-11T06:55:47.219Z,9.80
2023-02-11T06:58:28.263Z,6.47
2023-02-11T07:01:13.161Z,8.32
2023-02-11T07:03:54.242Z,8.77
2023-02-11T07:06:35.204Z,7.72
2023-02-11T07:09:23.206Z,7.63
2023-02-11T07:12:10.188Z,5.15
2023-02-11T07:14:58.228Z,7.38
2023-02-11T07:17:32.282Z,7.53
2023-02-11T07:20:21.208Z,7.88
2023-02-11T07:23:02.192Z,6.53
2023-02-11T07:25:56.169Z,6.15
2023-02-11T07:28:44.177Z,6.97
2023-02-11T07:31:36.266Z,7.32
2023-02-11T07:34:24.290Z,3.13
2023-02-11T07:36:58.290Z,5.18
2023-02-11T07:39:45.172Z,5.78
2023-02-11T07:42:26.243Z,8.02
2023-02-11T07:45:21.144Z,5.70
2023-02-11T07:48:08.207Z,5.47
2023-02-11T07:50:49.193Z,7.30
2023-02-11T07:53:36.184Z,5.47
2023-02-11T07:56:11.235Z,6.78
2023-02-11T07:58:58.195Z,5.30
2023-02-11T08:01:40.183Z,7.20
2023-02-11T08:04:34.163Z,7.38
2023-02-11T08:07:23.215Z,4.20
2023-02-11T08:09:57.312Z,8.05
2023-02-11T08:12:44.160Z,7.55
2023-02-11T08:15:18.251Z,3.78
2023-02-11T08:18:06.189Z,6.68
2023-02-11T08:20:47.218Z,7.10
2023-02-11T08:23:41.163Z,7.60
2023-02-11T08:26:41.158Z,4.50
2023-02-11T08:29:29.204Z,6.13
2023-02-11T08:32:10.228Z,4.47
2023-02-11T08:35:01.211Z,6.13
2023-02-11T08:37:35.262Z,4.32
2023-02-11T08:40:23.179Z,2.83
2023-02-11T08:42:57.246Z,3.28
2023-02-11T08:45:45.238Z,5.47
2023-02-11T08:48:19.326Z,2.17
2023-02-11T08:51:07.182Z,3.42
2023-02-11T08:53:48.178Z,4.30
2023-02-11T08:56:38.221Z,4.15
2023-02-11T08:59:21.303Z,3.25
2023-02-11T09:02:02.183Z,2.92
2023-02-11T09:04:50.182Z,3.15
2023-02-11T09:07:30.198Z,2.13
2023-02-11T09:10:11.297Z,4.30
2023-02-11T09:12:51.209Z,4.15
2023-02-11T09:15:39.176Z,3.03
2023-02-11T09:18:19.163Z,3.13
2023-02-11T09:21:00.274Z,4.85
2023-02-11T09:23:41.187Z,3.40
2023-02-11T09:26:25.257Z,4.22
2023-02-11T09:29:06.178Z,4.47
2023-02-11T09:31:47.482Z,4.15
2023-02-11T09:34:27.217Z,3.10
2023-02-11T09:37:15.198Z,3.05
2023-02-11T09:39:56.180Z,4.63
2023-02-11T09:42:53.192Z,3.08
2023-02-11T09:45:35.185Z,5.32
2023-02-11T09:48:31.198Z,2.95
2023-02-11T09:51:05.660Z,1.60
2023-02-11T09:53:57.661Z,2.30
2023-02-11T09:56:33.286Z,1.10
2023-02-11T09:59:24.211Z,2.03
2023-02-11T10:01:58.213Z,2.35
2023-02-11T10:05:04.199Z,2.10
2023-02-11T10:07:58.380Z,1.23
2023-02-11T10:10:55.234Z,1.17
2023-02-11T10:13:40.812Z,1.38
2023-02-11T10:16:32.190Z,1.60
2023-02-11T10:19:28.181Z,1.27
2023-02-11T10:22:12.379Z,2.33
2023-02-11T10:25:09.192Z,1.60
2023-02-11T10:27:50.198Z,1.58
2023-02-11T10:30:38.329Z,0.95
2023-02-11T10:33:32.221Z,0.93
2023-02-11T10:36:20.183Z,1.08
2023-02-11T10:39:00.224Z,1.42
2023-02-11T10:41:53.200Z,1.58
2023-02-11T10:44:50.176Z,2.13
2023-02-11T10:47:44.212Z,2.85
2023-02-11T10:50:35.366Z,2.25
2023-02-11T10:53:27.201Z,3.63
2023-02-11T10:56:03.444Z,2.83
2023-02-11T10:59:01.229Z,3.67
2023-02-11T11:02:02.238Z,3.10
2023-02-11T11:04:57.274Z,2.42
2023-02-11T11:07:44.203Z,4.45
2023-02-11T11:10:36.276Z,3.08
2023-02-11T11:13:36.173Z,3.63
2023-02-11T11:16:14.329Z,2.75
2023-02-11T11:19:23.948Z,3.60
2023-02-11T11:22:05.206Z,3.67
2023-02-11T11:24:53.258Z,3.90
2023-02-11T11:27:30.294Z,4.22
2023-02-11T11:30:23.192Z,2.70
2023-02-11T11:32:57.289Z,2.10
2023-02-11T11:35:45.196Z,2.58
2023-02-11T11:38:28.181Z,5.80
2023-02-11T11:41:29.182Z,2.80
2023-02-11T11:44:35.216Z,1.95
2023-02-11T11:47:26.215Z,1.75
2023-02-11T11:50:12.293Z,2.10
2023-02-11T11:53:10.210Z,3.10
2023-02-11T11:55:58.687Z,3.20
2023-02-11T11:58:40.300Z,2.83
2023-02-11T12:01:43.247Z,3.55
2023-02-11T12:05:01.210Z,2.50
2023-02-11T12:08:22.179Z,5.03
2023-02-11T12:11:12.212Z,3.35
2023-02-11T12:14:30.216Z,4.23
2023-02-11T12:17:34.196Z,2.65
2023-02-11T12:20:42.186Z,4.05
2023-02-11T12:23:42.247Z,2.15
2023-02-11T12:26:35.198Z,3.03
2023-02-11T12:29:16.216Z,3.95
2023-02-11T12:32:27.170Z,2.53
2023-02-11T12:35:14.248Z,4.50
2023-02-11T12:38:11.251Z,7.78
2023-02-11T12:40:54.020Z,5.32
2023-02-11T12:43:54.299Z,3.65
2023-02-11T12:46:39.299Z,6.18
2023-02-11T12:49:33.194Z,5.30
2023-02-11T12:52:22.258Z,3.65
2023-02-11T12:55:22.261Z,2.50
2023-02-11T12:58:16.171Z,3.03
2023-02-11T13:01:12.362Z,4.43
2023-02-11T13:03:56.350Z,3.58
2023-02-11T13:06:56.509Z,8.73
2023-02-11T13:09:50.354Z,14.93
2023-02-11T13:12:58.221Z,8.40
2023-02-11T13:15:32.436Z,6.95
2023-02-11T13:18:19.370Z,3.90
2023-02-11T13:20:53.403Z,4.75
2023-02-11T13:23:50.190Z,2.97
2023-02-11T13:26:35.258Z,4.60
2023-02-11T13:29:41.201Z,3.65
2023-02-11T13:32:24.390Z,2.17
2023-02-11T13:35:38.228Z,5.82
2023-02-11T13:38:45.182Z,5.45
2023-02-11T13:41:23.563Z,4.15
2023-02-11T13:44:10.184Z,6.00
2023-02-11T13:46:58.354Z,2.80
2023-02-11T13:49:47.188Z,3.05
2023-02-11T13:52:29.509Z,2.95
2023-02-11T13:55:22.371Z,3.22
2023-02-11T13:58:24.427Z,2.35
2023-02-11T14:01:18.404Z,4.25
2023-02-11T14:04:43.236Z,3.17
2023-02-11T14:08:19.189Z,3.70
2023-02-11T14:11:19.220Z,6.72
2023-02-11T14:14:20.226Z,2.15
2023-02-11T14:20:00.332Z,4.82
2023-02-11T14:23:03.216Z,3.10
2023-02-11T14:26:05.192Z,5.00
2023-02-11T14:28:58.287Z,4.28
2023-02-11T14:31:43.349Z,3.25
2023-02-11T14:34:43.216Z,3.50
2023-02-11T14:37:27.282Z,2.47
2023-02-11T14:40:41.175Z,2.17
2023-02-11T14:43:33.234Z,1.95
2023-02-11T14:46:21.240Z,2.30
2023-02-11T14:48:57.829Z,1.88
2023-02-11T14:51:54.208Z,1.40
2023-02-11T14:54:29.026Z,1.80
2023-02-11T14:57:34.282Z,2.80
2023-02-11T15:00:23.268Z,2.78
2023-02-11T15:03:11.298Z,2.05
2023-02-11T15:06:15.201Z,3.25
2023-02-11T15:09:12.174Z,2.80
2023-02-11T15:12:00.234Z,2.70
2023-02-11T15:14:34.567Z,5.30
2023-02-11T15:17:24.416Z,5.35
2023-02-11T15:20:01.418Z,3.90
2023-02-11T15:22:51.376Z,5.55
2023-02-11T15:25:27.128Z,5.43
2023-02-11T15:28:23.427Z,3.40
2023-02-11T15:31:09.603Z,8.15
2023-02-11T15:33:51.200Z,6.88
2023-02-11T15:36:36.386Z,6.30
2023-02-11T15:39:24.400Z,8.13
2023-02-11T15:42:30.408Z,12.70
2023-02-11T15:45:12.424Z,5.30
2023-02-11T15:48:03.197Z,13.38
2023-02-11T15:50:40.576Z,15.23
2023-02-11T15:56:20.578Z,19.02
2023-02-11T15:59:09.211Z,17.50
2023-02-11T16:01:43.610Z,14.80
2023-02-11T16:04:35.283Z,10.50
2023-02-11T16:07:35.197Z,15.75
2023-02-11T16:10:35.934Z,10.50
2023-02-11T16:13:16.204Z,12.30
2023-02-11T16:16:04.881Z,16.42
2023-02-11T16:18:52.024Z,7.65
2023-02-11T16:21:57.220Z,13.13
2023-02-11T16:24:32.537Z,8.70
2023-02-11T16:27:40.394Z,15.75
2023-02-11T16:30:47.472Z,11.73
2023-02-11T16:33:35.220Z,5.88
2023-02-11T16:36:25.510Z,6.90
2023-02-11T16:39:06.278Z,4.55
2023-02-11T16:41:47.339Z,4.43
2023-02-11T16:44:28.336Z,4.15
2023-02-11T16:47:11.378Z,13.45
2023-02-11T16:49:52.332Z,9.77
2023-02-11T16:52:33.430Z,12.27
2023-02-11T16:55:22.290Z,7.85
2023-02-11T16:58:02.403Z,9.93
2023-02-11T17:00:51.762Z,7.80
2023-02-11T17:03:29.858Z,7.18
2023-02-11T17:06:18.347Z,3.35
2023-02-11T17:08:52.374Z,4.88
2023-02-11T17:11:40.405Z,5.72
2023-02-11T17:14:21.363Z,6.70
2023-02-11T17:17:09.239Z,6.38
2023-02-11T17:19:43.371Z,3.13
2023-02-11T17:22:31.407Z,6.00
2023-02-11T17:25:06.545Z,6.25
2023-02-11T17:27:54.372Z,7.55
2023-02-11T17:30:28.368Z,3.38
2023-02-11T17:33:16.394Z,6.43
2023-02-11T17:35:57.215Z,2.95
2023-02-11T17:38:45.381Z,4.32
2023-02-11T17:41:19.153Z,2.92
2023-02-11T17:44:07.481Z,4.20
2023-02-11T17:46:47.247Z,2.47
2023-02-11T17:49:28.440Z,2.47
2023-02-11T17:52:08.393Z,4.93
2023-02-11T17:54:49.462Z,3.72
2023-02-11T17:57:30.206Z,3.70
2023-02-11T18:00:11.343Z,4.22
2023-02-11T18:02:52.236Z,7.22
2023-02-11T18:05:33.270Z,6.15
2023-02-11T18:08:20.349Z,5.43
2023-02-11T18:11:01.205Z,2.58
2023-02-11T18:13:49.216Z,2.13
2023-02-11T18:16:23.481Z,1.30
2023-02-11T18:19:11.223Z,1.20
2023-02-11T18:21:45.518Z,9.77
2023-02-11T18:24:33.394Z,1.42
2023-02-11T18:27:14.369Z,1.58
2023-02-11T18:30:08.374Z,1.67
2023-02-11T18:33:00.224Z,1.23
2023-02-11T18:35:35.501Z,3.28
2023-02-11T18:38:22.294Z,1.35
2023-02-11T18:41:03.219Z,1.60
2023-02-11T18:43:57.327Z,2.00
2023-02-11T18:46:44.398Z,1.23
2023-02-11T18:49:25.385Z,5.25
2023-02-11T18:52:19.366Z,4.93
2023-02-11T18:55:07.224Z,1.90
2023-02-11T18:57:49.370Z,1.50
2023-02-11T19:00:43.210Z,1.75
2023-02-11T19:03:37.212Z,0.95
2023-02-11T19:06:36.415Z,2.70
2023-02-11T19:09:26.397Z,1.42
2023-02-11T19:12:01.926Z,0.98
2023-02-11T19:14:48.216Z,0.75
2023-02-11T19:17:22.495Z,1.45
2023-02-11T19:20:12.234Z,1.75
2023-02-11T19:22:46.276Z,3.67
2023-02-11T19:25:34.224Z,4.38
2023-02-11T19:28:08.532Z,3.13
2023-02-11T19:30:55.325Z,2.35
2023-02-11T19:33:29.318Z,1.50
2023-02-11T19:36:18.213Z,1.60
2023-02-11T19:38:59.232Z,2.25
2023-02-11T19:41:47.420Z,1.80
2023-02-11T19:44:21.455Z,1.58
2023-02-11T19:47:09.220Z,2.30
2023-02-11T19:49:50.232Z,2.60
2023-02-11T19:52:44.201Z,2.55
2023-02-11T19:55:32.216Z,3.00
2023-02-11T19:58:13.460Z,1.75
2023-02-11T20:01:08.227Z,4.05
2023-02-11T20:03:57.232Z,6.22
2023-02-11T20:06:38.552Z,5.15
2023-02-11T20:09:26.460Z,2.70
2023-02-11T20:12:00.804Z,2.40
2023-02-11T20:14:47.286Z,2.72
2023-02-11T20:17:21.412Z,2.47
2023-02-11T20:20:09.216Z,3.20
2023-02-11T20:22:45.875Z,5.80
2023-02-11T20:25:41.219Z,2.55
2023-02-11T20:28:15.516Z,1.30
2023-02-11T20:31:03.587Z,1.00
2023-02-11T20:33:38.305Z,1.60
2023-02-11T20:36:30.400Z,1.60
2023-02-11T20:39:05.036Z,1.58
2023-02-11T20:41:52.219Z,2.30
2023-02-11T20:44:26.508Z,2.40
2023-02-11T20:47:13.225Z,3.05
2023-02-11T20:49:54.225Z,3.00
2023-02-11T20:52:36.277Z,1.90
2023-02-11T20:55:24.381Z,3.47
2023-02-11T20:57:58.548Z,5.78
2023-02-11T21:00:46.435Z,3.30
2023-02-11T21:03:26.235Z,1.02
2023-02-11T21:06:14.261Z,1.10
2023-02-11T21:08:55.273Z,2.35
2023-02-11T21:11:36.374Z,1.60
2023-02-11T21:14:17.226Z,1.40
2023-02-11T21:17:05.329Z,1.70
2023-02-11T21:19:46.299Z,3.17
2023-02-11T21:22:34.233Z,1.75
2023-02-11T21:25:08.561Z,3.03
2023-02-11T21:27:56.538Z,4.65
2023-02-11T21:30:36.373Z,2.63
2023-02-11T21:33:17.289Z,1.42
2023-02-11T21:35:58.232Z,2.70
2023-02-11T21:38:39.297Z,2.75
2023-02-11T21:41:20.274Z,1.17
2023-02-11T21:44:01.346Z,1.65
2023-02-11T21:46:41.308Z,1.48
2023-02-11T21:49:29.266Z,0.65
2023-02-11T21:52:09.244Z,0.47
2023-02-11T21:54:50.426Z,0.40
2023-02-11T21:57:32.270Z,0.73
2023-02-11T22:00:21.291Z,0.60
2023-02-11T22:02:55.337Z,0.93
2023-02-11T22:05:43.267Z,0.60
2023-02-11T22:08:19.845Z,0.57
2023-02-11T22:13:43.078Z,0.50
2023-02-11T22:16:31.315Z,1.08
2023-02-11T22:19:14.270Z,1.63
2023-02-11T22:22:02.262Z,1.20
2023-02-11T22:24:43.278Z,0.85
2023-02-11T22:27:32.249Z,1.08
2023-02-11T22:30:14.286Z,1.87
2023-02-11T22:33:02.249Z,3.50
2023-02-11T22:35:42.272Z,2.63
2023-02-11T22:38:23.291Z,2.22
2023-02-11T22:41:04.241Z,1.20
2023-02-11T22:43:45.306Z,3.90
2023-02-11T22:46:33.270Z,2.85
2023-02-11T22:49:07.370Z,2.15
2023-02-11T22:51:55.250Z,3.35
2023-02-11T22:54:36.320Z,3.88
2023-02-11T22:57:30.278Z,2.83
2023-02-11T23:00:25.223Z,0.82
2023-02-11T23:03:13.285Z,1.42
2023-02-11T23:05:47.337Z,1.00
2023-02-11T23:08:35.234Z,1.85
2023-02-11T23:11:13.319Z,1.48
2023-02-11T23:14:01.257Z,8.27
2023-02-11T23:16:36.358Z,8.00
2023-02-11T23:19:23.287Z,3.90
2023-02-11T23:21:58.303Z,2.55
2023-02-11T23:24:45.280Z,2.17
2023-02-11T23:27:19.342Z,1.65
2023-02-11T23:30:06.262Z,1.15
2023-02-11T23:32:47.275Z,1.20
2023-02-11T23:35:35.229Z,1.10
2023-02-11T23:38:23.290Z,2.15
2023-02-11T23:41:03.283Z,1.17
2023-02-11T23:43:51.230Z,2.15
2023-02-11T23:46:33.295Z,1.50
2023-02-11T23:49:22.279Z,1.70
2023-02-11T23:51:56.279Z,3.72
2023-02-11T23:54:44.243Z,1.85
2023-02-11T23:57:18.232Z,4.22
